Time;durP1;ratioP1;P1;durP2;ratioP2;P2;SDS_P1;SDS_P2;PMS_P1;PMS_P2;Temp;Humidity;BMP_temperature;BMP_pressure;BME280_temperature;BME280_humidity;BME280_pressure;Samples;Min_cycle;Max_cycle;Signal;HPM_P1;HPM_P2
2024/01/02 00:00:04;;;;;;;19.20;1.20;;;8.10;99.90;;;;;;5037263;28;20538;-80
2024/01/02 00:02:30;;;;;;;22.52;1.70;;;8.10;99.90;;;;;;5037431;28;20158;-79
2024/01/02 00:04:56;;;;;;;20.10;1.67;;;8.10;99.90;;;;;;5019519;28;20725;-80
2024/01/02 00:07:21;;;;;;;21.40;1.47;;;8.10;99.90;;;;;;5037293;28;20212;-79
2024/01/02 00:09:47;;;;;;;21.53;1.63;;;8.10;99.90;;;;;;5037036;28;20638;-80
2024/01/02 00:12:12;;;;;;;19.07;1.40;;;8.10;99.90;;;;;;5019631;28;20253;-79
2024/01/02 00:14:38;;;;;;;20.60;1.40;;;8.10;99.90;;;;;;5037841;28;20158;-80
2024/01/02 00:17:04;;;;;;;18.47;1.20;;;8.20;99.90;;;;;;5037014;28;20209;-81
2024/01/02 00:19:29;;;;;;;19.17;1.13;;;8.20;99.90;;;;;;5037063;28;20173;-80
2024/01/02 00:21:55;;;;;;;19.10;1.33;;;8.20;99.90;;;;;;5037487;28;20166;-80
2024/01/02 00:24:21;;;;;;;19.53;1.10;;;8.20;99.90;;;;;;5037491;28;20225;-80
2024/01/02 00:26:46;;;;;;;19.93;1.27;;;8.20;99.90;;;;;;5036869;28;20264;-80
2024/01/02 00:29:12;;;;;;;19.03;1.10;;;8.20;99.90;;;;;;5037460;28;20158;-79
2024/01/02 00:31:38;;;;;;;18.93;0.90;;;8.20;99.90;;;;;;5037360;28;20686;-79
2024/01/02 00:34:04;;;;;;;19.27;1.30;;;8.10;99.90;;;;;;5037093;28;20245;-79
2024/01/02 00:36:29;;;;;;;23.17;1.70;;;8.10;99.90;;;;;;5036624;28;20224;-79
2024/01/02 00:38:55;;;;;;;21.20;2.30;;;8.10;99.90;;;;;;5036580;28;20626;-80
2024/01/02 00:41:22;;;;;;;19.85;1.10;;;8.10;99.90;;;;;;5018688;28;20202;-79
2024/01/02 00:43:47;;;;;;;20.87;1.47;;;8.00;99.90;;;;;;5037013;28;20650;-79
2024/01/02 00:46:13;;;;;;;20.00;1.10;;;8.00;99.90;;;;;;5036418;28;20272;-78
2024/01/02 00:48:39;;;;;;;20.02;1.20;;;7.90;99.90;;;;;;5036435;28;20158;-79
2024/01/02 00:51:05;;;;;;;20.50;1.07;;;7.90;99.90;;;;;;5036398;28;20170;-78
2024/01/02 00:53:30;;;;;;;22.53;1.50;;;7.90;99.90;;;;;;5036408;28;20271;-80
2024/01/02 00:55:56;;;;;;;23.13;1.43;;;8.00;99.90;;;;;;5035971;28;20181;-79
2024/01/02 00:58:22;;;;;;;19.10;1.03;;;8.00;99.90;;;;;;5036540;28;20696;-78
2024/01/02 01:00:47;;;;;;;18.80;1.10;;;8.00;99.90;;;;;;5018224;28;20193;-78
2024/01/02 01:03:13;;;;;;;19.73;1.10;;;8.00;99.90;;;;;;5036363;28;20658;-78
2024/01/02 01:05:39;;;;;;;19.60;1.10;;;8.00;99.90;;;;;;5035151;28;20197;-78
2024/01/02 01:08:05;;;;;;;19.20;1.40;;;7.90;99.90;;;;;;5035894;28;20487;-78
2024/01/02 01:10:30;;;;;;;20.50;1.30;;;7.90;99.90;;;;;;5036006;28;20228;-78
2024/01/02 01:12:56;;;;;;;19.60;1.23;;;7.90;99.90;;;;;;5035891;28;20408;-78
2024/01/02 01:15:21;;;;;;;20.10;1.17;;;7.90;99.90;;;;;;5035905;28;20170;-78
2024/01/02 01:17:47;;;;;;;20.60;1.30;;;7.90;99.90;;;;;;5036032;28;20201;-78
2024/01/02 01:20:13;;;;;;;19.60;1.03;;;7.90;99.90;;;;;;5035663;28;20186;-78
2024/01/02 01:22:39;;;;;;;19.87;1.13;;;7.90;99.90;;;;;;5035665;28;20538;-78
2024/01/02 01:25:05;;;;;;;19.42;1.00;;;7.90;99.90;;;;;;5035883;28;20750;-78
2024/01/02 01:27:31;;;;;;;18.95;0.88;;;7.90;99.90;;;;;;5035606;28;20722;-79
2024/01/02 01:29:56;;;;;;;19.80;1.00;;;7.90;99.90;;;;;;5035595;28;20220;-79
2024/01/02 01:32:22;;;;;;;20.60;1.20;;;7.90;99.90;;;;;;5035659;28;20172;-78
2024/01/02 01:34:48;;;;;;;19.50;1.10;;;7.80;99.90;;;;;;5035476;28;20168;-78
2024/01/02 01:37:13;;;;;;;19.90;0.90;;;7.80;99.90;;;;;;5017818;28;20190;-79
2024/01/02 01:39:39;;;;;;;19.30;0.80;;;7.80;99.90;;;;;;5017620;28;20201;-78
2024/01/02 01:42:05;;;;;;;19.30;0.93;;;7.80;99.90;;;;;;5035516;28;20166;-79
2024/01/02 01:44:31;;;;;;;21.63;1.20;;;7.80;99.90;;;;;;5035456;28;20161;-80
2024/01/02 01:46:56;;;;;;;21.40;1.07;;;7.90;99.90;;;;;;5035246;28;20186;-78
2024/01/02 01:49:22;;;;;;;19.10;0.73;;;7.90;99.90;;;;;;5035358;28;20623;-79
2024/01/02 01:51:51;;;;;;;20.40;1.00;;;7.80;99.90;;;;;;5035439;28;20215;-78
2024/01/02 01:54:18;;;;;;;19.33;0.80;;;7.80;99.90;;;;;;5035224;28;20162;-79
2024/01/02 01:56:44;;;;;;;24.70;1.20;;;7.80;99.90;;;;;;5035091;28;20185;-78
2024/01/02 01:59:14;;;;;;;20.05;1.10;;;7.80;99.90;;;;;;5035198;28;20261;-79
2024/01/02 02:01:42;;;;;;;19.45;0.80;;;7.80;99.90;;;;;;5017388;28;20189;-78
2024/01/02 02:04:11;;;;;;;19.23;0.85;;;7.80;99.90;;;;;;5034844;28;20174;-78
2024/01/02 02:06:37;;;;;;;22.90;0.95;;;7.80;99.90;;;;;;5035039;28;20193;-80
2024/01/02 02:09:02;;;;;;;20.77;0.90;;;7.80;99.90;;;;;;5035789;28;20158;-79
2024/01/02 02:11:29;;;;;;;19.90;0.83;;;7.90;99.90;;;;;;5035927;28;20166;-78
2024/01/02 02:13:56;;;;;;;21.45;1.10;;;7.80;99.90;;;;;;5017224;28;20639;-78
2024/01/02 02:16:21;;;;;;;21.02;1.25;;;7.80;99.90;;;;;;5033878;28;20189;-79
2024/01/02 02:18:47;;;;;;;19.20;0.90;;;7.80;99.90;;;;;;5035102;28;20650;-78
2024/01/02 02:21:13;;;;;;;19.20;0.90;;;7.80;99.90;;;;;;5034654;28;20193;-78
2024/01/02 02:23:38;;;;;;;21.40;1.07;;;7.80;99.90;;;;;;5034608;28;20573;-78
2024/01/02 02:26:04;;;;;;;19.27;0.90;;;7.70;99.90;;;;;;5017089;28;20689;-78
2024/01/02 02:28:30;;;;;;;19.87;0.93;;;7.70;99.90;;;;;;5017141;28;20538;-79
2024/01/02 02:30:55;;;;;;;20.00;1.00;;;7.60;99.90;;;;;;5034797;28;20180;-78
2024/01/02 02:33:21;;;;;;;20.93;0.90;;;7.70;99.90;;;;;;5034710;28;20177;-79
2024/01/02 02:35:46;;;;;;;19.13;0.80;;;7.70;99.90;;;;;;5034560;28;20189;-79
2024/01/02 02:38:12;;;;;;;20.63;1.07;;;7.60;99.90;;;;;;5034317;28;20197;-79
2024/01/02 02:40:39;;;;;;;21.57;1.07;;;7.60;99.90;;;;;;5016655;28;20193;-79
2024/01/02 02:43:04;;;;;;;19.55;0.90;;;7.50;99.90;;;;;;5034425;28;20154;-78
2024/01/02 02:45:32;;;;;;;19.23;0.80;;;7.50;99.90;;;;;;5034119;28;20167;-79
2024/01/02 02:47:57;;;;;;;19.77;0.95;;;7.50;99.90;;;;;;5034258;28;20158;-78
2024/01/02 02:50:23;;;;;;;20.10;0.87;;;7.50;99.90;;;;;;5034767;28;20173;-78
2024/01/02 02:52:49;;;;;;;19.70;0.83;;;7.50;99.90;;;;;;5016729;28;20232;-79
2024/01/02 02:55:14;;;;;;;20.10;0.80;;;7.40;99.90;;;;;;5034207;28;20201;-78
2024/01/02 02:57:40;;;;;;;19.70;1.47;;;7.50;99.90;;;;;;5034383;28;20180;-78
2024/01/02 03:00:06;;;;;;;19.97;1.00;;;7.40;99.90;;;;;;5034214;28;20201;-79
2024/01/02 03:02:32;;;;;;;19.38;0.80;;;7.40;99.90;;;;;;5016254;28;20180;-80
2024/01/02 03:04:58;;;;;;;19.47;0.90;;;7.40;99.90;;;;;;5034292;28;20232;-78
2024/01/02 03:07:24;;;;;;;19.50;0.73;;;7.40;99.90;;;;;;5033913;28;20243;-79
2024/01/02 03:09:50;;;;;;;19.45;0.80;;;7.40;99.90;;;;;;5034327;28;20261;-79
2024/01/02 03:12:15;;;;;;;19.27;0.87;;;7.40;99.90;;;;;;5034224;28;20244;-79
2024/01/02 03:14:44;;;;;;;19.27;0.90;;;7.40;99.90;;;;;;5034124;28;20185;-78
2024/01/02 03:17:10;;;;;;;19.80;0.88;;;7.40;99.90;;;;;;5034078;28;20197;-78
2024/01/02 03:19:35;;;;;;;18.80;0.73;;;7.40;99.90;;;;;;5033864;28;20170;-79
2024/01/02 03:22:01;;;;;;;19.50;0.80;;;7.40;99.90;;;;;;5034261;28;20248;-79
2024/01/02 03:24:27;;;;;;;19.57;0.80;;;7.30;99.90;;;;;;5034132;28;20166;-80
2024/01/02 03:26:52;;;;;;;20.00;0.90;;;7.30;99.90;;;;;;5033870;28;20424;-79
2024/01/02 03:29:18;;;;;;;20.17;1.67;;;7.30;99.90;;;;;;5037143;28;20162;-80
2024/01/02 03:31:44;;;;;;;22.10;0.93;;;7.30;99.90;;;;;;5038177;28;20169;-78
2024/01/02 03:34:11;;;;;;;19.50;0.80;;;7.30;99.90;;;;;;5038202;28;20170;-79
2024/01/02 03:36:36;;;;;;;20.23;1.00;;;7.30;99.90;;;;;;5038051;28;20181;-79
2024/01/02 03:39:02;;;;;;;19.20;0.80;;;7.30;99.90;;;;;;5038071;28;20538;-78
2024/01/02 03:41:28;;;;;;;19.80;0.90;;;7.30;99.90;;;;;;5038014;28;20251;-78
2024/01/02 03:43:54;;;;;;;19.80;0.83;;;7.20;99.90;;;;;;5019762;28;20193;-79
2024/01/02 03:46:19;;;;;;;19.93;1.00;;;7.20;99.90;;;;;;5037722;28;20692;-79
2024/01/02 03:48:45;;;;;;;19.90;0.90;;;7.30;99.90;;;;;;5037847;28;20436;-79
2024/01/02 03:51:11;;;;;;;19.57;0.80;;;7.30;99.90;;;;;;5020149;28;20180;-78
2024/01/02 03:53:37;;;;;;;20.23;1.13;;;7.30;99.90;;;;;;5037948;28;20704;-78
2024/01/02 03:56:04;;;;;;;19.70;0.90;;;7.40;99.90;;;;;;5019804;28;20197;-79
2024/01/02 03:58:30;;;;;;;21.00;0.80;;;7.30;99.90;;;;;;5037637;28;20165;-79
2024/01/02 04:00:56;;;;;;;20.05;1.00;;;7.40;99.90;;;;;;5037420;28;20706;-79
2024/01/02 04:03:23;;;;;;;21.90;0.95;;;7.40;99.90;;;;;;5019708;28;20647;-80
2024/01/02 04:05:49;;;;;;;19.08;0.73;;;7.40;99.90;;;;;;5037291;28;20324;-79
2024/01/02 04:08:14;;;;;;;19.85;0.90;;;7.40;99.90;;;;;;5037750;28;20189;-79
2024/01/02 04:10:40;;;;;;;19.57;0.80;;;7.40;99.90;;;;;;5037912;28;20244;-78
2024/01/02 04:13:06;;;;;;;20.07;0.90;;;7.40;99.90;;;;;;5037147;28;20653;-78
2024/01/02 04:15:32;;;;;;;19.57;0.80;;;7.40;99.90;;;;;;5036893;28;20168;-80
2024/01/02 04:17:57;;;;;;;20.00;1.30;;;7.50;99.90;;;;;;5037750;28;20170;-79
2024/01/02 04:20:23;;;;;;;20.27;0.97;;;7.50;99.90;;;;;;5037409;28;20447;-78
2024/01/02 04:22:54;;;;;;;19.37;0.80;;;7.50;99.90;;;;;;5036921;28;20162;-79
2024/01/02 04:25:22;;;;;;;19.85;0.90;;;7.60;99.90;;;;;;5019075;28;20504;-78
2024/01/02 04:27:52;;;;;;;19.60;0.70;;;7.60;99.90;;;;;;5019563;28;20232;-79
2024/01/02 04:30:17;;;;;;;19.65;0.90;;;7.60;99.90;;;;;;5037032;28;20170;-79
2024/01/02 04:32:43;;;;;;;19.47;0.80;;;7.60;99.90;;;;;;5037021;28;20220;-78
2024/01/02 04:35:09;;;;;;;19.30;0.83;;;7.70;99.90;;;;;;5036797;28;20542;-79
2024/01/02 04:37:34;;;;;;;19.23;0.80;;;7.70;99.90;;;;;;5036867;28;20259;-78
2024/01/02 04:40:00;;;;;;;19.63;0.80;;;7.70;99.90;;;;;;5035992;28;20559;-79
2024/01/02 04:42:25;;;;;;;19.57;0.77;;;7.70;99.90;;;;;;5036905;28;20618;-79
2024/01/02 04:44:51;;;;;;;20.00;0.80;;;7.70;99.90;;;;;;5036871;28;20635;-79
2024/01/02 04:47:17;;;;;;;20.20;0.93;;;7.70;99.90;;;;;;5036501;28;20190;-79
2024/01/02 04:49:42;;;;;;;19.10;0.80;;;7.80;99.90;;;;;;5036785;28;20258;-78
2024/01/02 04:52:08;;;;;;;19.27;0.70;;;7.80;99.90;;;;;;5036423;28;20173;-78
2024/01/02 04:54:34;;;;;;;19.10;0.73;;;7.90;99.90;;;;;;5036423;28;20176;-79
2024/01/02 04:57:00;;;;;;;19.25;0.77;;;7.90;99.90;;;;;;5036364;28;20191;-78
2024/01/02 04:59:25;;;;;;;19.20;0.80;;;7.90;99.90;;;;;;5036662;28;20607;-79
2024/01/02 05:01:51;;;;;;;19.60;1.43;;;7.90;99.90;;;;;;5036203;28;20181;-77
2024/01/02 05:04:17;;;;;;;19.13;0.70;;;8.00;99.90;;;;;;5036058;28;20638;-79
2024/01/02 05:06:42;;;;;;;19.70;0.80;;;7.90;99.90;;;;;;5036093;28;20236;-78
2024/01/02 05:09:11;;;;;;;19.43;0.70;;;8.00;99.90;;;;;;5018297;28;20839;-78
2024/01/02 05:11:37;;;;;;;19.33;0.80;;;8.00;99.90;;;;;;5036615;28;20538;-78
2024/01/02 05:14:03;;;;;;;19.25;0.88;;;8.10;99.90;;;;;;5035941;28;20169;-78
2024/01/02 05:16:29;;;;;;;20.80;0.90;;;8.10;99.90;;;;;;5036370;28;20215;-79
2024/01/02 05:18:54;;;;;;;19.20;0.83;;;8.20;99.90;;;;;;5036411;28;20924;-78
2024/01/02 05:21:20;;;;;;;19.90;0.90;;;8.20;99.90;;;;;;5035804;28;20193;-79
2024/01/02 05:23:46;;;;;;;19.63;0.83;;;8.20;99.90;;;;;;5035824;28;20193;-79
2024/01/02 05:26:11;;;;;;;19.50;0.70;;;8.20;99.90;;;;;;5035968;28;20185;-78
2024/01/02 05:28:37;;;;;;;19.40;0.70;;;8.20;99.90;;;;;;5035872;28;20166;-78
2024/01/02 05:31:06;;;;;;;19.73;0.70;;;8.30;99.90;;;;;;5035860;28;20543;-78
2024/01/02 05:33:31;;;;;;;19.73;0.77;;;8.40;99.90;;;;;;5035890;28;20166;-78
2024/01/02 05:35:57;;;;;;;19.80;0.80;;;8.50;99.90;;;;;;5035442;28;20246;-78
2024/01/02 05:38:23;;;;;;;19.77;0.80;;;8.50;99.90;;;;;;5035632;28;20166;-77
2024/01/02 05:40:48;;;;;;;20.00;0.77;;;8.60;99.90;;;;;;5035312;28;20208;-77
2024/01/02 05:43:14;;;;;;;20.10;0.80;;;8.70;99.90;;;;;;5035314;28;20436;-78
2024/01/02 05:45:40;;;;;;;20.57;0.77;;;8.70;99.90;;;;;;5035534;28;20185;-78
2024/01/02 05:48:07;;;;;;;20.00;0.80;;;8.70;99.90;;;;;;5035550;28;20654;-78
2024/01/02 05:50:32;;;;;;;21.40;0.90;;;8.80;99.90;;;;;;5017018;28;20177;-78
2024/01/02 05:52:58;;;;;;;19.90;0.80;;;8.80;99.90;;;;;;5035198;28;20687;-77
2024/01/02 05:55:24;;;;;;;21.27;0.97;;;8.90;99.90;;;;;;5035344;28;20511;-78
2024/01/02 05:57:50;;;;;;;21.05;0.80;;;8.90;99.90;;;;;;5035403;28;20174;-77
2024/01/02 06:00:16;;;;;;;19.97;0.70;;;9.00;99.90;;;;;;5017789;28;20217;-78
2024/01/02 06:02:42;;;;;;;19.57;0.70;;;9.10;99.90;;;;;;5035309;28;20177;-78
2024/01/02 06:05:08;;;;;;;19.57;0.87;;;9.10;99.90;;;;;;5035255;28;20733;-78
2024/01/02 06:07:34;;;;;;;19.45;0.70;;;9.20;99.90;;;;;;5034713;28;20793;-78
2024/01/02 06:09:59;;;;;;;19.50;0.80;;;9.20;99.90;;;;;;5034926;28;20194;-78
2024/01/02 06:12:25;;;;;;;19.60;0.80;;;9.30;99.90;;;;;;5034775;28;20546;-77
2024/01/02 06:14:51;;;;;;;19.70;0.80;;;9.40;99.90;;;;;;5034801;28;20699;-77
2024/01/02 06:17:17;;;;;;;19.35;0.77;;;9.40;99.90;;;;;;5034598;28;20455;-78
2024/01/02 06:19:43;;;;;;;19.30;0.80;;;9.50;99.90;;;;;;5034693;28;20170;-78
2024/01/02 06:22:09;;;;;;;19.40;0.80;;;9.60;99.90;;;;;;5034841;28;20689;-77
2024/01/02 06:24:41;;;;;;;19.30;0.90;;;9.70;99.90;;;;;;5016963;28;20214;-77
2024/01/02 06:27:06;;;;;;;19.15;0.85;;;9.70;99.90;;;;;;5034749;28;20605;-77
2024/01/02 06:29:32;;;;;;;19.50;0.83;;;9.70;99.90;;;;;;5016934;28;20201;-78
2024/01/02 06:31:57;;;;;;;19.10;0.80;;;9.80;99.90;;;;;;5034604;28;20162;-79
2024/01/02 06:34:23;;;;;;;18.67;0.70;;;9.90;99.90;;;;;;5034577;28;20170;-78
2024/01/02 06:36:49;;;;;;;18.90;0.73;;;10.00;99.90;;;;;;5034605;28;20709;-80
2024/01/02 06:39:15;;;;;;;19.93;0.97;;;10.00;99.90;;;;;;5034634;28;20166;-79
2024/01/02 06:41:44;;;;;;;18.85;0.70;;;10.00;99.90;;;;;;5034303;28;20186;-79
2024/01/02 06:44:11;;;;;;;19.10;0.80;;;10.00;99.90;;;;;;5016901;28;20166;-79
2024/01/02 06:46:37;;;;;;;18.60;0.77;;;10.10;99.90;;;;;;5034460;28;20182;-78
2024/01/02 06:49:02;;;;;;;18.57;0.70;;;10.10;99.90;;;;;;5034319;28;20658;-80
2024/01/02 06:51:29;;;;;;;18.50;0.70;;;10.20;99.90;;;;;;5034867;28;20176;-78
2024/01/02 06:53:55;;;;;;;18.75;0.80;;;10.30;99.90;;;;;;5035193;28;20691;-79
2024/01/02 06:56:20;;;;;;;18.93;1.00;;;10.30;99.90;;;;;;5035485;28;20186;-79
2024/01/02 06:58:46;;;;;;;18.60;0.73;;;10.30;99.90;;;;;;5017538;28;20181;-79
2024/01/02 07:01:16;;;;;;;18.27;0.70;;;10.40;99.90;;;;;;5035065;28;20285;-79
2024/01/02 07:03:41;;;;;;;18.50;0.77;;;10.50;99.90;;;;;;5034182;28;20720;-79
2024/01/02 07:06:07;;;;;;;19.17;0.90;;;10.60;99.90;;;;;;5034951;28;20186;-79
2024/01/02 07:08:32;;;;;;;18.60;0.73;;;10.70;99.90;;;;;;5034495;28;20153;-79
2024/01/02 07:10:58;;;;;;;18.20;0.70;;;10.80;99.90;;;;;;5034033;28;20158;-79
2024/01/02 07:13:24;;;;;;;18.10;0.70;;;10.90;99.90;;;;;;5033717;28;20162;-80
2024/01/02 07:15:50;;;;;;;18.37;0.77;;;11.00;99.90;;;;;;5034145;28;20239;-80
2024/01/02 07:18:16;;;;;;;18.02;0.70;;;11.00;99.90;;;;;;5016088;28;20181;-79
2024/01/02 07:20:42;;;;;;;18.30;0.70;;;11.10;99.90;;;;;;5016465;28;20189;-81
2024/01/02 07:23:08;;;;;;;17.67;0.63;;;11.20;99.90;;;;;;5034373;28;20511;-80
2024/01/02 07:25:33;;;;;;;17.43;0.70;;;11.20;99.90;;;;;;5016305;28;20204;-79
2024/01/02 07:27:59;;;;;;;17.73;0.70;;;11.20;99.90;;;;;;5034187;28;20631;-81
2024/01/02 07:30:25;;;;;;;17.40;0.70;;;11.30;99.90;;;;;;5034361;28;20158;-79
2024/01/02 07:32:50;;;;;;;17.50;0.70;;;11.30;99.90;;;;;;5034258;28;20166;-79
2024/01/02 07:35:16;;;;;;;18.13;0.80;;;11.30;99.90;;;;;;5034640;28;20181;-80
2024/01/02 07:37:41;;;;;;;17.47;0.70;;;11.40;99.90;;;;;;5034203;28;20169;-79
2024/01/02 07:40:08;;;;;;;17.33;0.70;;;11.30;99.90;;;;;;5034596;28;20693;-82
2024/01/02 07:42:34;;;;;;;17.40;0.70;;;11.40;99.90;;;;;;5035292;28;20162;-80
2024/01/02 07:44:59;;;;;;;17.30;0.60;;;11.40;99.90;;;;;;5034775;28;20639;-81
2024/01/02 07:47:25;;;;;;;17.67;0.70;;;11.40;99.90;;;;;;5035000;28;20773;-79
2024/01/02 07:49:51;;;;;;;17.30;0.73;;;11.50;99.90;;;;;;5034368;28;20253;-79
2024/01/02 07:52:17;;;;;;;17.20;0.67;;;11.40;99.90;;;;;;5034798;28;20959;-79
2024/01/02 07:54:43;;;;;;;18.48;0.80;;;11.50;99.90;;;;;;5034615;28;20165;-79
2024/01/02 07:57:09;;;;;;;17.57;0.93;;;11.50;99.90;;;;;;5034363;28;20186;-80
2024/01/02 07:59:35;;;;;;;17.30;0.70;;;11.50;99.90;;;;;;5034441;28;20601;-79
2024/01/02 08:02:00;;;;;;;17.17;0.73;;;11.50;99.90;;;;;;5034902;28;20404;-79
2024/01/02 08:04:28;;;;;;;18.53;0.87;;;11.60;99.90;;;;;;5034725;28;20181;-81
2024/01/02 08:06:57;;;;;;;17.25;0.80;;;11.50;99.90;;;;;;5035017;28;20428;-80
2024/01/02 08:09:23;;;;;;;18.15;0.93;;;11.50;99.90;;;;;;5035222;28;20169;-80
2024/01/02 08:11:49;;;;;;;19.23;0.93;;;11.50;99.90;;;;;;5034944;28;20170;-79
2024/01/02 08:14:15;;;;;;;17.50;0.67;;;11.60;99.90;;;;;;5019343;28;20169;-80
2024/01/02 08:16:40;;;;;;;17.35;0.90;;;11.60;99.90;;;;;;5020620;28;20194;-80
2024/01/02 08:19:07;;;;;;;17.47;0.80;;;11.70;99.90;;;;;;5038734;28;20192;-80
2024/01/02 08:21:33;;;;;;;17.42;1.02;;;11.70;99.90;;;;;;5020328;28;20803;-80
2024/01/02 08:23:59;;;;;;;17.35;0.80;;;11.70;99.90;;;;;;5038314;28;20170;-80
2024/01/02 08:26:25;;;;;;;16.90;0.70;;;11.70;99.90;;;;;;5020458;28;20197;-80
2024/01/02 08:28:51;;;;;;;17.20;0.80;;;11.70;99.90;;;;;;5038257;28;20431;-80
2024/01/02 08:31:17;;;;;;;16.93;0.70;;;11.60;99.90;;;;;;5020301;28;20646;-81
2024/01/02 08:33:45;;;;;;;17.57;0.90;;;11.70;99.90;;;;;;5038954;28;20919;-80
2024/01/02 08:36:11;;;;;;;17.33;0.80;;;11.70;99.90;;;;;;5038336;28;20754;-81
2024/01/02 08:38:40;;;;;;;17.63;0.80;;;11.70;99.90;;;;;;5020516;28;20184;-81
2024/01/02 08:41:07;;;;;;;16.95;0.70;;;11.70;99.90;;;;;;5038331;28;20276;-81
2024/01/02 08:43:33;;;;;;;17.02;0.70;;;11.70;99.90;;;;;;5037912;28;20665;-80
2024/01/02 08:45:59;;;;;;;17.10;0.90;;;11.70;99.90;;;;;;5020608;28;20269;-82
2024/01/02 08:48:24;;;;;;;17.03;0.60;;;11.70;99.90;;;;;;5020141;28;20174;-80
2024/01/02 08:50:50;;;;;;;17.00;0.80;;;11.70;99.90;;;;;;5038300;28;20467;-81
2024/01/02 08:53:16;;;;;;;16.98;0.70;;;11.60;99.90;;;;;;5038108;28;20169;-81
2024/01/02 08:55:42;;;;;;;17.00;0.70;;;11.60;99.90;;;;;;5038153;28;20256;-82
2024/01/02 08:58:08;;;;;;;17.20;0.67;;;11.60;99.90;;;;;;5038215;28;20188;-82
2024/01/02 09:00:34;;;;;;;16.90;0.70;;;11.60;99.90;;;;;;5020006;28;20578;-81
2024/01/02 09:03:02;;;;;;;17.15;0.70;;;11.60;99.90;;;;;;5037222;28;20267;-82
2024/01/02 09:05:28;;;;;;;17.05;0.70;;;11.60;99.90;;;;;;5019804;28;20170;-82
2024/01/02 09:07:54;;;;;;;17.17;0.70;;;11.60;99.90;;;;;;5037213;28;20249;-80
2024/01/02 09:10:21;;;;;;;20.80;0.85;;;11.70;99.90;;;;;;5037188;28;20162;-81
2024/01/02 09:12:47;;;;;;;16.95;0.70;;;11.70;99.90;;;;;;5019754;28;20185;-81
2024/01/02 09:15:13;;;;;;;16.93;0.60;;;11.60;99.90;;;;;;5037612;28;20162;-82
2024/01/02 09:17:38;;;;;;;16.70;0.70;;;11.60;99.90;;;;;;5038108;28;20264;-82
2024/01/02 09:20:05;;;;;;;17.03;0.70;;;11.60;99.90;;;;;;5037282;28;20201;-81
2024/01/02 09:22:31;;;;;;;18.25;0.77;;;11.60;99.90;;;;;;5019808;28;20170;-82
2024/01/02 09:24:59;;;;;;;16.70;0.70;;;11.60;99.90;;;;;;5037572;28;20571;-81
2024/01/02 09:27:30;;;;;;;17.02;0.70;;;11.70;99.90;;;;;;5036884;28;20440;-81
2024/01/02 09:29:56;;;;;;;16.75;0.70;;;11.70;99.90;;;;;;5037572;28;20158;-80
2024/01/02 09:32:22;;;;;;;16.88;0.70;;;11.60;99.90;;;;;;5036803;28;20508;-81
2024/01/02 09:34:47;;;;;;;16.90;0.60;;;11.60;99.90;;;;;;5019429;28;20173;-82
2024/01/02 09:37:14;;;;;;;18.50;0.80;;;11.60;99.90;;;;;;5037138;28;20185;-80
2024/01/02 09:39:40;;;;;;;16.90;0.70;;;11.60;99.90;;;;;;5038025;28;20218;-82
2024/01/02 09:42:27;;;;;;;16.75;0.70;;;11.70;99.90;;;;;;5040827;28;20698;-83
2024/01/02 09:45:05;;;;;;;16.95;0.77;;;11.80;99.90;;;;;;5018883;28;20245;-81
2024/01/02 09:47:45;;;;;;;16.55;0.70;;;11.80;99.90;;;;;;5037061;28;20187;-82
2024/01/02 09:50:33;;;;;;;16.73;0.80;;;11.90;99.90;;;;;;5037236;28;20161;-82
2024/01/02 09:53:36;;;;;;;16.45;0.60;;;11.90;99.90;;;;;;5003658;28;20186;-81
2024/01/02 09:56:21;;;;;;;16.25;0.70;;;11.90;99.90;;;;;;5037043;28;20211;-81
2024/01/02 09:58:57;;;;;;;16.50;0.70;;;12.00;99.90;;;;;;5019345;28;20177;-82
2024/01/02 10:01:58;;;;;;;16.65;0.60;;;11.90;99.90;;;;;;5036893;28;20631;-81
2024/01/02 10:04:30;;;;;;;16.40;0.70;;;12.00;99.90;;;;;;5029313;28;20198;-82
2024/01/02 10:06:56;;;;;;;16.95;0.80;;;11.90;99.90;;;;;;5019305;28;20193;-82
2024/01/02 10:09:38;;;;;;;17.43;0.90;;;12.00;99.90;;;;;;5019586;28;20233;-81
2024/01/02 10:12:47;;;;;;;16.83;0.80;;;12.00;99.90;;;;;;5037550;28;20153;-81
2024/01/02 10:15:28;;;;;;;17.33;1.00;;;11.90;99.90;;;;;;5036926;28;20158;-81
2024/01/02 10:18:13;;;;;;;16.60;1.20;;;11.90;99.90;;;;;;5018620;28;20645;-81
2024/01/02 10:21:10;;;;;;;16.60;0.77;;;11.80;99.90;;;;;;5036567;28;20582;-81
2024/01/02 10:23:54;;;;;;;16.85;1.00;;;11.80;99.90;;;;;;5035755;28;20158;-80
2024/01/02 10:26:24;;;;;;;16.48;0.80;;;11.80;99.90;;;;;;5036215;28;20185;-82
2024/01/02 10:28:51;;;;;;;17.40;1.00;;;11.80;99.90;;;;;;5036416;28;20185;-83
2024/01/02 10:31:29;;;;;;;16.55;0.80;;;11.70;99.90;;;;;;5036423;28;20158;-81
2024/01/02 10:34:12;;;;;;;17.40;0.98;;;11.70;99.90;;;;;;5036302;28;20646;-82
2024/01/02 10:36:41;;;;;;;16.75;0.88;;;11.60;99.90;;;;;;5018026;28;20193;-83
2024/01/02 10:39:32;;;;;;;16.63;0.80;;;11.60;99.90;;;;;;5018017;28;20261;-81
2024/01/02 10:42:01;;;;;;;16.83;0.80;;;11.60;99.90;;;;;;5035589;28;20658;-81
2024/01/02 10:44:42;;;;;;;16.90;0.80;;;11.60;99.90;;;;;;5036584;28;20185;-83
2024/01/02 10:47:13;;;;;;;16.45;0.70;;;11.60;99.90;;;;;;5035811;28;20684;-81
2024/01/02 10:49:48;;;;;;;17.42;1.00;;;11.50;99.90;;;;;;5035743;28;20208;-82
2024/01/02 10:52:20;;;;;;;16.75;0.70;;;11.50;99.90;;;;;;5035929;28;20634;-83
2024/01/02 10:55:05;;;;;;;16.83;0.90;;;11.40;99.90;;;;;;5017808;28;20170;-82
2024/01/02 10:57:40;;;;;;;16.92;0.70;;;11.40;99.90;;;;;;5018228;28;20273;-82
2024/01/02 11:00:08;;;;;;;16.65;0.77;;;11.40;99.90;;;;;;5035067;28;20194;-81
2024/01/02 11:02:51;;;;;;;17.02;0.85;;;11.40;99.90;;;;;;5035504;28;20573;-82
2024/01/02 11:05:32;;;;;;;17.25;0.75;;;11.30;99.90;;;;;;5035738;28;20542;-81
2024/01/02 11:08:14;;;;;;;17.10;0.90;;;11.20;99.90;;;;;;5035145;28;20154;-82
2024/01/02 11:11:04;;;;;;;18.83;0.73;;;11.20;99.90;;;;;;5035902;28;20150;-82
2024/01/02 11:13:30;;;;;;;17.70;1.00;;;11.20;99.90;;;;;;5017657;28;20181;-80
2024/01/02 11:16:02;;;;;;;17.55;0.90;;;11.10;99.90;;;;;;5035388;28;20659;-81
2024/01/02 11:18:31;;;;;;;17.23;0.90;;;11.10;99.90;;;;;;5035752;28;20682;-82
2024/01/02 11:21:05;;;;;;;17.05;0.80;;;11.00;99.90;;;;;;5035899;28;20182;-82
2024/01/02 11:23:39;;;;;;;17.23;0.70;;;11.00;99.90;;;;;;5018294;28;20161;-82
2024/01/02 11:26:20;;;;;;;17.42;0.75;;;11.00;99.90;;;;;;5018373;28;20248;-82
2024/01/02 11:28:47;;;;;;;17.42;0.82;;;10.90;99.90;;;;;;5035785;28;20261;-82
2024/01/02 11:31:13;;;;;;;17.90;0.98;;;10.90;99.90;;;;;;5034733;28;20212;-81
2024/01/02 11:34:18;;;;;;;17.05;0.70;;;10.90;99.90;;;;;;5017484;28;20204;-81
2024/01/02 11:37:07;;;;;;;17.25;0.80;;;10.90;99.90;;;;;;5017085;28;20277;-82
2024/01/02 11:40:04;;;;;;;17.13;0.70;;;10.80;99.90;;;;;;5034917;28;20147;-82
2024/01/02 11:42:51;;;;;;;17.25;0.70;;;10.80;99.90;;;;;;5007687;28;20276;-81
2024/01/02 11:45:20;;;;;;;17.15;0.80;;;10.80;99.90;;;;;;5016991;28;20166;-82
2024/01/02 11:47:57;;;;;;;17.05;0.80;;;10.90;99.90;;;;;;5016740;28;20173;-81
2024/01/02 11:50:29;;;;;;;17.35;0.80;;;10.90;99.90;;;;;;5038237;28;20196;-80
2024/01/02 11:53:00;;;;;;;17.42;0.75;;;10.80;99.90;;;;;;5038555;28;20685;-81
2024/01/02 11:55:41;;;;;;;19.95;0.90;;;10.70;99.90;;;;;;5039071;28;20208;-83
2024/01/02 11:58:27;;;;;;;17.83;0.80;;;10.60;99.90;;;;;;5021120;28;20269;-81
2024/01/02 12:01:00;;;;;;;17.65;0.80;;;10.60;99.90;;;;;;5038257;28;20224;-81
2024/01/02 12:03:44;;;;;;;17.50;0.70;;;10.60;99.90;;;;;;5038229;28;20634;-81
2024/01/02 12:06:37;;;;;;;17.70;0.70;;;10.60;99.90;;;;;;5038328;28;20196;-81
2024/01/02 12:09:13;;;;;;;17.75;0.70;;;10.50;99.90;;;;;;5020496;28;20617;-82
2024/01/02 12:11:46;;;;;;;17.60;0.80;;;10.50;99.90;;;;;;5038564;28;20154;-81
2024/01/02 12:14:38;;;;;;;20.02;0.90;;;10.50;99.90;;;;;;5039350;28;20158;-83
2024/01/02 12:17:07;;;;;;;17.45;0.77;;;10.50;99.90;;;;;;5020710;28;20224;-82
2024/01/02 12:19:36;;;;;;;17.85;0.88;;;10.60;99.90;;;;;;5038037;28;20251;-82
2024/01/02 12:22:04;;;;;;;19.40;1.33;;;10.50;99.90;;;;;;5037691;28;20193;-81
2024/01/02 12:24:31;;;;;;;17.63;0.70;;;10.40;99.90;;;;;;5037253;28;20662;-82
2024/01/02 12:26:59;;;;;;;19.30;0.90;;;10.40;99.90;;;;;;5019608;28;20201;-82
2024/01/02 12:29:56;;;;;;;17.73;0.70;;;10.40;99.90;;;;;;5037353;28;20162;-82
2024/01/02 12:32:56;;;;;;;17.75;0.80;;;10.40;99.90;;;;;;5037850;28;20173;-82
2024/01/02 12:36:04;;;;;;;17.52;0.77;;;10.40;99.90;;;;;;5019274;28;20174;-82
2024/01/02 12:38:53;;;;;;;20.10;0.80;;;10.50;99.90;;;;;;4993748;28;20193;-82
2024/01/02 12:41:33;;;;;;;17.45;0.70;;;10.50;99.90;;;;;;5038061;28;20189;-82
2024/01/02 12:44:00;;;;;;;17.60;0.80;;;10.50;99.90;;;;;;5020809;28;20192;-81
2024/01/02 12:46:36;;;;;;;17.63;0.90;;;10.40;99.90;;;;;;5020673;28;20193;-81
2024/01/02 12:49:08;;;;;;;17.55;0.70;;;10.40;99.90;;;;;;5038707;28;20187;-82
2024/01/02 12:51:36;;;;;;;17.92;0.90;;;10.40;99.90;;;;;;5021527;28;20197;-82